createdAt,value
2022-09-16T00:02:12.598Z,9.48
2022-09-16T00:04:44.666Z,3.90
2022-09-16T00:07:12.572Z,9.10
2022-09-16T00:12:33.055Z,7.35
2022-09-16T00:15:31.676Z,4.80
2022-09-16T00:18:00.005Z,5.93
2022-09-16T00:20:28.982Z,5.78
2022-09-16T00:22:56.698Z,3.53
2022-09-16T00:25:24.654Z,5.30
2022-09-16T00:27:52.653Z,5.00
2022-09-16T00:30:21.188Z,4.05
2022-09-16T00:32:48.646Z,4.82
2022-09-16T00:35:16.597Z,9.70
2022-09-16T00:37:44.709Z,5.07
2022-09-16T00:40:12.857Z,4.43
2022-09-16T00:42:41.040Z,6.20
2022-09-16T00:45:22.946Z,5.65
2022-09-16T00:47:57.722Z,5.68
2022-09-16T00:53:26.958Z,4.57
2022-09-16T00:56:23.727Z,7.45
2022-09-16T00:58:53.522Z,11.77
2022-09-16T01:04:27.454Z,6.47
2022-09-16T01:06:54.813Z,5.25
2022-09-16T01:09:25.694Z,5.95
2022-09-16T01:11:52.641Z,7.78
2022-09-16T01:14:54.563Z,12.38
2022-09-16T01:17:50.038Z,3.08
2022-09-16T01:24:04.002Z,4.82
2022-09-16T01:26:59.881Z,4.82
2022-09-16T01:29:44.275Z,6.97
2022-09-16T01:32:20.402Z,6.20
2022-09-16T01:35:18.952Z,2.45
2022-09-16T01:38:24.237Z,5.45
2022-09-16T01:41:00.802Z,5.07
2022-09-16T01:43:57.944Z,3.97
2022-09-16T01:46:53.610Z,3.70
2022-09-16T01:49:29.257Z,4.72
2022-09-16T01:52:17.761Z,3.78
2022-09-16T01:55:13.586Z,4.70
2022-09-16T01:57:51.986Z,2.53
2022-09-16T02:00:24.610Z,3.30
2022-09-16T02:03:02.368Z,4.22
2022-09-16T02:08:56.022Z,4.35
2022-09-16T02:11:51.115Z,10.95
2022-09-16T02:14:28.105Z,4.82
2022-09-16T02:17:05.896Z,5.68
2022-09-16T02:20:08.056Z,7.38
2022-09-16T02:22:44.162Z,3.80
2022-09-16T02:25:44.727Z,4.18
2022-09-16T02:28:19.125Z,7.50
2022-09-16T02:30:52.770Z,4.90
2022-09-16T02:33:22.344Z,5.70
2022-09-16T02:36:23.445Z,6.20
2022-09-16T02:38:55.996Z,10.20
2022-09-16T02:41:28.675Z,2.58
2022-09-16T02:44:01.716Z,2.97
2022-09-16T02:46:46.510Z,5.82
2022-09-16T02:49:44.350Z,6.00
2022-09-16T02:52:31.613Z,6.32
2022-09-16T02:55:10.313Z,9.10
2022-09-16T02:57:38.562Z,5.68
2022-09-16T03:00:07.334Z,4.93
2022-09-16T03:02:35.596Z,3.97
2022-09-16T03:05:03.724Z,4.30
2022-09-16T03:07:30.957Z,5.20
2022-09-16T03:10:04.214Z,4.80
2022-09-16T03:13:08.124Z,9.90
2022-09-16T03:19:21.459Z,5.50
2022-09-16T03:22:02.464Z,5.40
2022-09-16T03:25:08.028Z,5.20
2022-09-16T03:27:51.206Z,5.07
2022-09-16T03:34:11.772Z,9.30
2022-09-16T03:36:51.674Z,7.38
2022-09-16T03:39:19.277Z,5.45
2022-09-16T03:45:04.926Z,4.32
2022-09-16T03:47:33.104Z,5.60
2022-09-16T03:50:00.861Z,5.70
2022-09-16T03:52:28.745Z,5.03
2022-09-16T03:54:56.751Z,4.05
2022-09-16T03:57:29.780Z,5.85
2022-09-16T03:59:56.757Z,4.43
2022-09-16T04:02:53.661Z,6.70
2022-09-16T04:05:20.678Z,4.80
2022-09-16T04:07:52.531Z,7.80
2022-09-16T04:10:20.682Z,5.10
2022-09-16T04:13:17.568Z,7.03
2022-09-16T04:16:09.363Z,6.53
2022-09-16T04:18:36.624Z,8.85
2022-09-16T04:21:04.941Z,4.78
2022-09-16T04:23:32.538Z,4.90
2022-09-16T04:26:04.448Z,6.95
2022-09-16T04:28:33.597Z,6.15
2022-09-16T04:31:05.553Z,8.10
2022-09-16T04:33:34.233Z,5.93
2022-09-16T04:36:25.001Z,4.95
2022-09-16T04:38:52.792Z,6.00
2022-09-16T04:41:23.090Z,5.47
2022-09-16T04:43:52.801Z,4.90
2022-09-16T04:46:20.848Z,3.85
2022-09-16T04:48:50.223Z,4.10
2022-09-16T04:51:42.614Z,3.33
2022-09-16T04:54:17.099Z,6.97
2022-09-16T04:56:44.563Z,5.07
2022-09-16T04:59:12.512Z,5.57
2022-09-16T05:01:40.783Z,3.75
2022-09-16T05:04:10.347Z,5.30
2022-09-16T05:09:40.471Z,4.97
2022-09-16T05:12:08.871Z,4.60
2022-09-16T05:15:00.544Z,4.80
2022-09-16T05:17:50.427Z,8.15
2022-09-16T05:20:24.576Z,5.03
2022-09-16T05:22:52.590Z,3.13
2022-09-16T05:25:20.707Z,5.50
2022-09-16T05:27:48.651Z,3.60
2022-09-16T05:30:42.086Z,4.15
2022-09-16T05:39:04.727Z,3.85
2022-09-16T05:41:36.136Z,5.70
2022-09-16T05:44:06.644Z,10.90
2022-09-16T05:49:26.886Z,7.28
2022-09-16T05:51:55.528Z,8.57
2022-09-16T05:57:12.228Z,6.82
2022-09-16T06:02:44.025Z,7.30
2022-09-16T06:05:13.005Z,4.57
2022-09-16T06:22:30.971Z,6.15
2022-09-16T06:33:20.442Z,7.70
2022-09-16T06:35:51.085Z,4.70
2022-09-16T06:38:25.209Z,6.25
2022-09-16T06:40:52.559Z,5.75
2022-09-16T06:43:20.573Z,10.48
2022-09-16T06:45:57.582Z,12.50
2022-09-16T06:48:24.768Z,3.70
2022-09-16T06:51:02.374Z,6.35
2022-09-16T06:53:34.541Z,8.70
2022-09-16T06:56:08.022Z,7.90
2022-09-16T06:58:37.781Z,4.05
2022-09-16T07:01:09.685Z,8.05
2022-09-16T07:03:47.123Z,9.85
2022-09-16T07:06:15.951Z,8.02
2022-09-16T07:08:48.697Z,9.95
2022-09-16T07:11:18.842Z,7.05
2022-09-16T07:13:53.232Z,6.72
2022-09-16T07:16:27.014Z,5.60
2022-09-16T07:19:00.713Z,11.88
2022-09-16T07:21:30.428Z,6.93
2022-09-16T07:24:05.591Z,10.85
2022-09-16T07:26:35.040Z,5.18
2022-09-16T07:29:04.647Z,9.23
2022-09-16T07:31:35.700Z,6.07
2022-09-16T07:34:05.006Z,8.23
2022-09-16T07:36:44.922Z,3.15
2022-09-16T07:39:19.475Z,6.10
2022-09-16T07:41:48.534Z,4.00
2022-09-16T07:44:19.010Z,8.00
2022-09-16T07:46:47.078Z,5.60
2022-09-16T07:49:15.157Z,7.30
2022-09-16T07:51:43.377Z,7.18
2022-09-16T07:54:13.688Z,7.43
2022-09-16T07:56:41.847Z,8.40
2022-09-16T07:59:39.849Z,2.65
2022-09-16T08:02:17.835Z,6.00
2022-09-16T08:04:44.730Z,4.85
2022-09-16T08:07:12.680Z,9.77
2022-09-16T08:09:50.992Z,3.63
2022-09-16T08:12:20.662Z,7.40
2022-09-16T08:14:48.517Z,7.10
2022-09-16T08:20:09.059Z,7.10
2022-09-16T08:22:36.627Z,5.57
2022-09-16T08:25:13.692Z,4.72
2022-09-16T08:27:40.563Z,7.05
2022-09-16T08:30:09.771Z,9.15
2022-09-16T08:32:36.748Z,7.68
2022-09-16T08:35:09.937Z,7.93
2022-09-16T08:37:36.768Z,6.57
2022-09-16T08:40:15.400Z,5.07
2022-09-16T08:42:45.859Z,8.52
2022-09-16T08:45:43.549Z,3.63
2022-09-16T08:48:40.401Z,7.03
2022-09-16T08:51:15.204Z,8.13
2022-09-16T08:53:55.037Z,8.40
2022-09-16T08:56:25.805Z,5.97
2022-09-16T08:58:55.571Z,8.57
2022-09-16T09:01:42.794Z,5.88
2022-09-16T09:04:12.406Z,6.50
2022-09-16T09:06:43.696Z,8.43
2022-09-16T09:10:01.017Z,7.97
2022-09-16T09:12:39.616Z,7.65
2022-09-16T09:15:39.326Z,9.05
2022-09-16T09:24:36.991Z,7.15
2022-09-16T09:27:46.961Z,8.52
2022-09-16T09:30:22.345Z,10.55
2022-09-16T09:33:28.034Z,6.15
2022-09-16T09:36:32.874Z,5.15
2022-09-16T09:39:06.605Z,12.88
2022-09-16T09:41:41.903Z,8.05
2022-09-16T09:44:39.978Z,7.10
2022-09-16T09:47:30.106Z,7.53
2022-09-16T09:50:17.057Z,4.75
2022-09-16T09:52:52.561Z,10.18
2022-09-16T09:55:27.795Z,4.85
2022-09-16T09:58:15.773Z,7.90
2022-09-16T10:00:42.761Z,4.80
2022-09-16T10:03:13.795Z,3.67
2022-09-16T10:05:44.687Z,6.15
2022-09-16T10:08:20.876Z,7.50
2022-09-16T10:11:24.197Z,5.30
2022-09-16T10:16:52.983Z,5.57
2022-09-16T10:19:26.233Z,6.00
2022-09-16T10:22:08.051Z,5.60
2022-09-16T10:24:39.243Z,8.27
2022-09-16T10:30:17.925Z,5.40
2022-09-16T10:33:01.534Z,9.18
2022-09-16T10:36:00.858Z,5.53
2022-09-16T10:39:05.215Z,4.88
2022-09-16T10:44:34.963Z,5.07
2022-09-16T10:47:10.348Z,7.05
2022-09-16T10:49:44.811Z,5.45
2022-09-16T10:52:23.276Z,4.28
2022-09-16T10:54:51.147Z,7.82
2022-09-16T10:57:26.339Z,11.30
2022-09-16T11:00:09.083Z,6.65
2022-09-16T11:02:52.679Z,4.45
2022-09-16T11:05:33.689Z,5.10
2022-09-16T11:08:16.440Z,9.57
2022-09-16T11:10:48.733Z,6.78
2022-09-16T11:13:42.657Z,4.05
2022-09-16T11:16:21.156Z,5.88
2022-09-16T11:22:17.897Z,6.78
2022-09-16T11:25:29.236Z,4.97
2022-09-16T11:28:27.757Z,11.25
2022-09-16T11:31:24.509Z,6.95
2022-09-16T11:34:23.736Z,2.28
2022-09-16T11:37:06.959Z,4.05
2022-09-16T11:39:57.407Z,6.78
2022-09-16T11:42:35.109Z,6.45
2022-09-16T11:45:20.688Z,6.10
2022-09-16T11:48:30.380Z,2.80
2022-09-16T11:51:24.048Z,6.97
2022-09-16T11:54:02.342Z,5.88
2022-09-16T12:00:05.672Z,11.27
2022-09-16T12:02:59.837Z,9.00
2022-09-16T12:05:53.608Z,6.45
2022-09-16T12:08:39.008Z,8.68
2022-09-16T12:11:19.717Z,7.93
2022-09-16T12:14:42.929Z,9.75
2022-09-16T12:20:34.975Z,4.90
2022-09-16T12:23:24.261Z,12.07
2022-09-16T12:26:01.207Z,6.88
2022-09-16T12:29:05.817Z,9.55
2022-09-16T12:31:53.126Z,6.45
2022-09-16T12:34:28.299Z,6.80
2022-09-16T12:37:12.337Z,5.68
2022-09-16T12:39:41.018Z,4.53
2022-09-16T12:42:26.955Z,8.88
2022-09-16T12:45:13.353Z,3.75
2022-09-16T12:47:41.090Z,3.45
2022-09-16T12:50:52.513Z,6.82
2022-09-16T12:53:58.124Z,6.28
2022-09-16T12:57:15.820Z,8.48
2022-09-16T13:00:22.196Z,7.50
2022-09-16T13:02:58.910Z,4.75
2022-09-16T13:05:59.872Z,5.22
2022-09-16T13:08:30.204Z,2.95
2022-09-16T13:12:00.567Z,4.70
2022-09-16T13:14:02.391Z,7.78
2022-09-16T13:16:36.727Z,6.55
2022-09-16T13:22:28.167Z,5.75
2022-09-16T13:25:20.910Z,4.45
2022-09-16T13:28:22.176Z,5.35
2022-09-16T13:30:54.671Z,8.00
2022-09-16T13:33:28.145Z,3.15
2022-09-16T13:36:18.828Z,4.35
2022-09-16T13:41:47.362Z,6.85
2022-09-16T13:44:37.421Z,4.50
2022-09-16T13:47:15.561Z,3.05
2022-09-16T13:50:14.408Z,7.68
2022-09-16T13:52:43.849Z,3.45
2022-09-16T13:55:26.379Z,6.90
2022-09-16T13:58:54.943Z,3.30
2022-09-16T14:01:56.027Z,3.10
2022-09-16T14:05:10.156Z,4.40
2022-09-16T14:07:51.299Z,1.60
2022-09-16T14:10:30.772Z,6.45
2022-09-16T14:13:21.577Z,4.18
2022-09-16T14:15:56.623Z,3.58
2022-09-16T14:18:28.973Z,2.92
2022-09-16T14:21:16.424Z,3.67
2022-09-16T14:23:44.564Z,4.68
2022-09-16T14:26:14.872Z,3.30
2022-09-16T14:28:42.533Z,9.13
2022-09-16T14:31:29.105Z,4.88
2022-09-16T14:34:08.441Z,4.55
2022-09-16T14:36:45.618Z,2.05
2022-09-16T14:39:17.509Z,5.40
2022-09-16T14:42:15.774Z,5.57
2022-09-16T14:44:51.132Z,6.35
2022-09-16T14:50:24.534Z,6.57
2022-09-16T14:52:55.662Z,9.18
2022-09-16T14:55:36.827Z,5.15
2022-09-16T14:58:04.626Z,3.83
2022-09-16T15:00:44.287Z,6.07
2022-09-16T15:03:29.764Z,7.55
2022-09-16T15:06:06.847Z,5.57
2022-09-16T15:08:54.741Z,12.98
2022-09-16T15:11:47.214Z,6.05
2022-09-16T15:14:15.484Z,9.93
2022-09-16T15:16:47.238Z,4.43
2022-09-16T15:19:25.314Z,6.60
2022-09-16T15:24:47.511Z,5.95
2022-09-16T15:27:24.966Z,3.75
2022-09-16T15:29:57.428Z,5.60
2022-09-16T15:32:28.179Z,4.55
2022-09-16T15:35:32.170Z,6.03
2022-09-16T15:38:14.655Z,2.47
2022-09-16T15:40:47.663Z,3.30
2022-09-16T15:43:24.715Z,3.13
2022-09-16T15:46:04.802Z,4.25
2022-09-16T15:48:35.985Z,5.28
2022-09-16T15:51:39.562Z,2.38
2022-09-16T15:54:18.629Z,8.85
2022-09-16T15:57:07.025Z,8.02
2022-09-16T16:00:13.887Z,7.45
2022-09-16T16:02:53.602Z,5.22
2022-09-16T16:08:37.227Z,3.78
2022-09-16T16:11:30.960Z,5.30
2022-09-16T16:14:01.911Z,5.97
2022-09-16T16:16:32.188Z,6.45
2022-09-16T16:19:00.951Z,8.00
2022-09-16T16:21:28.651Z,13.25
2022-09-16T16:23:56.616Z,11.23
2022-09-16T16:26:24.771Z,16.02
2022-09-16T16:28:52.598Z,15.57
2022-09-16T16:34:17.560Z,10.85
2022-09-16T16:36:44.607Z,9.52
2022-09-16T16:39:12.536Z,13.13
2022-09-16T16:41:47.552Z,12.48
2022-09-16T16:47:07.737Z,8.82
2022-09-16T16:49:35.119Z,11.98
2022-09-16T16:52:05.012Z,11.52
2022-09-16T16:54:38.434Z,11.07
2022-09-16T16:57:07.665Z,11.05
2022-09-16T16:59:34.580Z,14.70
2022-09-16T17:04:56.518Z,7.78
2022-09-16T17:10:23.439Z,12.05
2022-09-16T17:13:16.069Z,10.13
2022-09-16T17:15:44.627Z,9.05
2022-09-16T17:18:12.746Z,19.85
2022-09-16T17:20:40.786Z,16.30
2022-09-16T17:23:16.718Z,9.82
2022-09-16T17:28:45.164Z,14.57
2022-09-16T17:31:24.498Z,18.38
2022-09-16T17:36:53.665Z,10.70
2022-09-16T17:39:21.792Z,14.73
2022-09-16T17:41:49.802Z,15.20
2022-09-16T17:47:10.551Z,21.75
2022-09-16T17:49:43.640Z,16.13
2022-09-16T17:52:10.730Z,12.65
2022-09-16T17:54:38.673Z,16.25
2022-09-16T17:57:06.770Z,10.95
2022-09-16T17:59:34.524Z,7.45
2022-09-16T18:02:02.952Z,13.35
2022-09-16T18:07:23.120Z,11.85
2022-09-16T18:09:50.549Z,10.55
2022-09-16T18:12:18.502Z,20.98
2022-09-16T18:14:46.553Z,13.35
2022-09-16T18:17:15.909Z,12.30
2022-09-16T18:19:42.509Z,13.98
2022-09-16T18:22:34.621Z,18.17
2022-09-16T18:25:06.808Z,15.43
2022-09-16T18:27:34.648Z,17.63
2022-09-16T18:30:03.032Z,16.67
2022-09-16T18:32:30.685Z,14.13
2022-09-16T18:34:59.478Z,19.08
2022-09-16T18:37:28.428Z,20.67
2022-09-16T18:40:01.699Z,20.63
2022-09-16T18:42:32.006Z,10.13
2022-09-16T18:45:00.646Z,16.80
2022-09-16T18:47:28.525Z,12.10
2022-09-16T18:50:00.565Z,16.08
2022-09-16T18:52:33.610Z,18.77
2022-09-16T18:57:52.659Z,14.18
2022-09-16T19:03:13.142Z,17.50
2022-09-16T19:05:54.959Z,14.55
2022-09-16T19:11:16.306Z,8.80
2022-09-16T19:13:45.226Z,10.95
2022-09-16T19:16:13.281Z,12.10
2022-09-16T19:18:42.198Z,12.10
2022-09-16T19:21:16.603Z,18.60
2022-09-16T19:24:19.558Z,13.73
2022-09-16T19:26:48.632Z,14.95
2022-09-16T19:29:17.983Z,11.82
2022-09-16T19:31:52.923Z,10.43
2022-09-16T19:34:21.599Z,19.42
2022-09-16T19:36:49.528Z,13.07
2022-09-16T19:39:16.682Z,17.13
2022-09-16T19:41:45.168Z,9.73
2022-09-16T19:44:38.636Z,9.48
2022-09-16T19:47:06.571Z,8.13
2022-09-16T19:52:31.518Z,9.13
2022-09-16T19:55:05.607Z,9.50
2022-09-16T19:57:32.621Z,8.02
2022-09-16T20:00:32.779Z,8.35
2022-09-16T20:03:39.230Z,8.52
2022-09-16T20:06:15.628Z,11.70
2022-09-16T20:08:49.500Z,9.90
2022-09-16T20:11:19.520Z,9.05
2022-09-16T20:16:52.382Z,16.17
2022-09-16T20:19:20.558Z,13.68
2022-09-16T20:21:57.595Z,10.48
2022-09-16T20:24:25.457Z,7.00
2022-09-16T20:26:54.418Z,13.23
2022-09-16T20:29:22.782Z,7.30
2022-09-16T20:31:52.763Z,8.45
2022-09-16T20:34:22.938Z,11.63
2022-09-16T20:36:51.465Z,10.07
2022-09-16T20:39:23.634Z,9.75
2022-09-16T20:41:52.535Z,13.32
2022-09-16T20:44:20.741Z,7.93
2022-09-16T20:46:50.017Z,6.68
2022-09-16T20:49:19.970Z,14.55
2022-09-16T20:54:38.557Z,9.82
2022-09-16T20:57:06.503Z,7.88
2022-09-16T20:59:39.382Z,9.57
2022-09-16T21:02:09.461Z,10.82
2022-09-16T21:04:42.546Z,13.50
2022-09-16T21:07:12.189Z,11.20
2022-09-16T21:09:40.745Z,10.82
2022-09-16T21:12:08.956Z,10.93
2022-09-16T21:14:41.540Z,12.20
2022-09-16T21:17:13.545Z,10.90
2022-09-16T21:19:40.745Z,12.73
2022-09-16T21:22:13.629Z,7.47
2022-09-16T21:43:01.205Z,10.75
2022-09-16T21:45:28.780Z,14.13
2022-09-16T21:48:02.651Z,8.73
2022-09-16T21:50:30.906Z,9.43
2022-09-16T22:10:39.101Z,17.13
2022-09-16T22:13:07.339Z,9.98
2022-09-16T22:15:39.782Z,11.15
2022-09-16T22:18:06.588Z,10.82
2022-09-16T22:20:36.566Z,17.85
2022-09-16T22:23:28.656Z,8.90
2022-09-16T22:25:56.614Z,8.13
2022-09-16T22:28:24.527Z,12.60
2022-09-16T22:30:52.508Z,13.15
2022-09-16T22:33:20.682Z,14.05
2022-09-16T22:35:49.403Z,12.57
2022-09-16T22:38:16.714Z,14.77
2022-09-16T22:40:44.546Z,15.38
2022-09-16T22:43:12.637Z,10.15
2022-09-16T22:45:40.548Z,9.75
2022-09-16T22:48:08.543Z,15.90
2022-09-16T22:50:36.486Z,13.55
2022-09-16T22:53:29.832Z,17.40
2022-09-16T22:56:07.646Z,15.45
2022-09-16T22:58:39.568Z,14.93
2022-09-16T23:04:18.721Z,11.20
2022-09-16T23:06:48.150Z,12.18
2022-09-16T23:09:17.312Z,18.15
2022-09-16T23:11:45.691Z,18.52
2022-09-16T23:16:57.161Z,10.63
2022-09-16T23:19:24.635Z,11.07
2022-09-16T23:22:19.330Z,15.02
2022-09-16T23:24:46.531Z,20.70
2022-09-16T23:27:40.833Z,14.88
2022-09-16T23:30:20.089Z,21.40
2022-09-16T23:32:49.368Z,20.98
2022-09-16T23:35:23.162Z,19.23
2022-09-16T23:37:50.796Z,16.17
2022-09-16T23:40:18.641Z,12.57
2022-09-16T23:42:46.692Z,17.70
2022-09-16T23:45:20.304Z,18.67
